Time;durP1;ratioP1;P1;durP2;ratioP2;P2;SDS_P1;SDS_P2;PMS_P1;PMS_P2;Temp;Humidity;BMP_temperature;BMP_pressure;BME280_temperature;BME280_humidity;BME280_pressure;Samples;Min_cycle;Max_cycle;Signal;HPM_P1;HPM_P2
2023/09/06 00:00:43;;;;;;;;;21.67;20.67;;;;;27.07;48.03;101197.94;5100958;27;45194;-70
2023/09/06 00:03:10;;;;;;;;;23.00;22.50;;;;;27.06;48.19;101190.81;5101015;27;45652;-71
2023/09/06 00:05:36;;;;;;;;;20.33;18.33;;;;;27.01;48.29;101187.97;5111936;27;46111;-71
2023/09/06 00:08:02;;;;;;;;;20.00;19.67;;;;;26.98;48.78;101190.09;5097510;27;45919;-70
2023/09/06 00:10:28;;;;;;;;;23.33;20.67;;;;;26.96;48.41;101186.75;5082213;27;45468;-70
2023/09/06 00:12:53;;;;;;;;;22.00;22.00;;;;;26.97;48.50;101191.16;5100981;27;45272;-71
2023/09/06 00:15:18;;;;;;;;;24.00;22.33;;;;;26.93;49.05;101186.44;5100100;27;45908;-71
2023/09/06 00:17:44;;;;;;;;;20.00;19.00;;;;;26.92;49.26;101185.59;5100180;27;45443;-71
2023/09/06 00:20:22;;;;;;;;;19.33;19.33;;;;;26.82;49.33;101171.72;5100340;27;45500;-71
2023/09/06 00:22:59;;;;;;;;;22.33;21.00;;;;;26.84;49.26;101177.81;5100575;27;45482;-69
2023/09/06 00:25:26;;;;;;;;;20.33;19.33;;;;;26.86;48.75;101180.28;5092476;27;47614;-71
2023/09/06 00:27:54;;;;;;;;;27.67;24.33;;;;;26.79;49.12;101174.94;5100640;27;45561;-70
2023/09/06 00:30:19;;;;;;;;;25.67;21.67;;;;;26.81;48.95;101178.25;5100407;27;45424;-71
2023/09/06 00:32:46;;;;;;;;;26.00;23.67;;;;;26.72;49.12;101157.06;5100764;27;45505;-70
2023/09/06 00:35:16;;;;;;;;;21.67;21.67;;;;;26.80;49.35;101186.69;5099730;27;45710;-71
2023/09/06 00:37:42;;;;;;;;;20.33;18.67;;;;;26.66;49.43;101158.88;5099887;27;45344;-71
2023/09/06 00:40:18;;;;;;;;;26.67;25.33;;;;;26.75;49.42;101179.22;5100144;27;45470;-70
2023/09/06 00:42:59;;;;;;;;;23.67;23.67;;;;;26.73;48.77;101175.91;5100460;27;45479;-71
2023/09/06 00:45:27;;;;;;;;;19.00;18.00;;;;;26.69;48.75;101166.56;5081220;27;48530;-70
2023/09/06 00:47:55;;;;;;;;;21.00;19.00;;;;;26.74;48.92;101183.03;5099996;27;45588;-72
2023/09/06 00:50:21;;;;;;;;;22.67;21.33;;;;;26.64;48.74;101166.47;5081506;27;45529;-71
2023/09/06 00:52:49;;;;;;;;;28.33;21.33;;;;;26.70;49.17;101178.31;5100339;27;45380;-70
2023/09/06 00:55:14;;;;;;;;;20.33;19.00;;;;;26.59;48.91;101169.06;5099845;27;45641;-71
2023/09/06 00:57:41;;;;;;;;;17.67;16.33;;;;;26.67;49.20;101179.63;5099586;27;45532;-71
2023/09/06 01:00:16;;;;;;;;;21.00;19.00;;;;;26.61;49.51;101172.38;5099893;27;45485;-70
2023/09/06 01:02:41;;;;;;;;;22.67;19.33;;;;;26.57;49.32;101160.28;5100083;27;45351;-70
2023/09/06 01:05:07;;;;;;;;;20.33;17.67;;;;;26.25;49.06;101119.78;5098113;27;46970;-70
2023/09/06 01:07:35;;;;;;;;;22.00;19.00;;;;;26.56;49.16;101172.25;5099605;27;45743;-70
2023/09/06 01:10:03;;;;;;;;;17.00;16.00;;;;;26.29;48.92;101129.13;5099637;27;45521;-70
2023/09/06 01:12:29;;;;;;;;;24.00;18.67;;;;;26.57;49.44;101173.91;5104964;27;45549;-70
2023/09/06 01:14:57;;;;;;;;;18.00;16.67;;;;;26.53;49.55;101175.47;5111206;27;46894;-72
2023/09/06 01:17:26;;;;;;;;;20.33;18.33;;;;;26.54;49.10;101168.94;5099359;27;45331;-70
2023/09/06 01:19:59;;;;;;;;;15.67;15.33;;;;;26.54;48.88;101172.50;5102274;27;45327;-70
2023/09/06 01:22:31;;;;;;;;;18.00;16.67;;;;;26.53;48.86;101170.84;5099922;27;45390;-70
2023/09/06 01:24:57;;;;;;;;;15.33;13.33;;;;;26.53;48.70;101170.03;5081077;27;48637;-71
2023/09/06 01:27:23;;;;;;;;;13.00;11.67;;;;;26.50;48.47;101165.88;5098940;27;45447;-70
2023/09/06 01:29:49;;;;;;;;;13.00;12.33;;;;;26.50;48.91;101162.31;5099724;27;45340;-70
2023/09/06 01:32:14;;;;;;;;;15.67;15.67;;;;;26.23;49.06;101123.78;5099413;27;45371;-70
2023/09/06 01:34:40;;;;;;;;;17.00;15.67;;;;;26.47;49.18;101173.72;5099254;27;46622;-69
2023/09/06 01:37:05;;;;;;;;;10.67;10.33;;;;;26.46;49.06;101178.34;5099374;27;45540;-70
2023/09/06 01:39:30;;;;;;;;;14.00;11.33;;;;;26.16;48.80;101129.34;5099268;27;45230;-70
2023/09/06 01:41:56;;;;;;;;;15.00;12.67;;;;;26.44;48.72;101182.38;5098779;27;55304;-70
2023/09/06 01:44:21;;;;;;;;;14.33;14.33;;;;;26.42;48.82;101170.84;5098473;27;51952;-70
2023/09/06 01:46:46;;;;;;;;;16.00;13.00;;;;;26.29;48.68;101153.66;5099035;27;45469;-71
2023/09/06 01:49:12;;;;;;;;;14.00;13.00;;;;;26.32;48.75;101172.25;5099250;27;45394;-71
2023/09/06 01:51:37;;;;;;;;;12.33;11.00;;;;;26.40;48.71;101175.72;5099283;27;45237;-70
2023/09/06 01:54:09;;;;;;;;;12.00;10.00;;;;;26.30;48.64;101166.22;5098345;27;63904;-70
2023/09/06 01:56:34;;;;;;;;;13.67;13.67;;;;;26.38;48.56;101179.50;5109278;27;45374;-70
2023/09/06 01:58:59;;;;;;;;;13.67;13.67;;;;;26.36;48.64;101178.91;5097008;27;59622;-69
2023/09/06 02:01:25;;;;;;;;;12.00;12.00;;;;;26.34;48.96;101172.88;5098803;27;45554;-72
2023/09/06 02:03:50;;;;;;;;;10.00;10.00;;;;;26.04;49.09;101123.09;5098563;27;46436;-71
2023/09/06 02:06:16;;;;;;;;;16.33;12.33;;;;;25.76;49.16;101083.75;5098635;27;45423;-68
2023/09/06 02:08:41;;;;;;;;;12.67;11.00;;;;;26.06;49.40;101132.69;5109598;27;46496;-71
2023/09/06 02:11:06;;;;;;;;;12.00;12.00;;;;;26.33;49.42;101181.25;5105765;27;46074;-70
2023/09/06 02:13:32;;;;;;;;;11.67;10.33;;;;;26.31;49.13;101176.06;5098518;27;46347;-71
2023/09/06 02:16:00;;;;;;;;;12.67;11.67;;;;;26.30;49.12;101190.75;5098195;27;45598;-70
2023/09/06 02:18:26;;;;;;;;;12.00;10.33;;;;;26.21;49.73;101173.06;5098232;27;45485;-70
2023/09/06 02:20:54;;;;;;;;;13.67;13.67;;;;;26.24;49.67;101172.63;5098871;27;45545;-71
2023/09/06 02:23:20;;;;;;;;;12.67;10.00;;;;;26.10;49.46;101160.28;5094978;27;47984;-71
2023/09/06 02:25:45;;;;;;;;;10.33;10.33;;;;;26.23;49.62;101187.31;5099644;27;45617;-71
2023/09/06 02:28:10;;;;;;;;;12.00;11.00;;;;;26.18;49.97;101184.47;5098385;27;45607;-70
2023/09/06 02:30:36;;;;;;;;;12.33;12.00;;;;;26.17;49.86;101173.78;5098621;27;45499;-71
2023/09/06 02:33:04;;;;;;;;;11.67;10.33;;;;;25.85;49.77;101119.66;5098405;27;46315;-72
2023/09/06 02:35:29;;;;;;;;;11.67;11.67;;;;;26.20;50.13;101190.50;5098290;27;45376;-70
2023/09/06 02:37:54;;;;;;;;;11.00;9.67;;;;;25.86;50.07;101132.22;5097651;27;45485;-70
2023/09/06 02:40:20;;;;;;;;;12.00;10.67;;;;;26.10;50.07;101160.28;5096110;27;45446;-69
2023/09/06 02:42:48;;;;;;;;;10.33;10.00;;;;;26.11;50.05;101170.13;5098078;27;45833;-70
2023/09/06 02:45:14;;;;;;;;;9.00;8.67;;;;;25.97;50.36;101149.63;5092591;27;46195;-71
2023/09/06 02:47:52;;;;;;;;;9.00;9.00;;;;;26.11;50.25;101174.75;5099062;27;45536;-70
2023/09/06 02:50:23;;;;;;;;;10.33;9.33;;;;;25.99;50.73;101167.38;5098003;27;45303;-71
2023/09/06 02:52:50;;;;;;;;;11.00;11.00;;;;;26.02;50.91;101172.34;5097984;27;45878;-69
2023/09/06 02:55:16;;;;;;;;;13.67;13.00;;;;;26.03;50.57;101184.13;5097732;27;45377;-70
2023/09/06 02:57:43;;;;;;;;;14.33;13.00;;;;;26.03;50.89;101186.84;5097859;27;45474;-72
2023/09/06 03:00:35;;;;;;;;;11.67;9.67;;;;;26.04;51.27;101180.31;5115077;27;45480;-70
2023/09/06 03:03:16;;;;;;;;;10.00;10.00;;;;;25.98;51.27;101175.78;5097083;27;46332;-72
2023/09/06 03:05:42;;;;;;;;;9.00;9.00;;;;;25.92;51.26;101163.13;5097654;27;45289;-70
2023/09/06 03:08:09;;;;;;;;;11.33;10.00;;;;;25.94;51.67;101183.59;5097853;27;45465;-70
2023/09/06 03:10:35;;;;;;;;;12.33;12.33;;;;;25.86;51.55;101174.97;5097945;27;45498;-71
2023/09/06 03:13:01;;;;;;;;;10.67;10.33;;;;;25.85;51.60;101170.59;5107507;27;45780;-71
2023/09/06 03:15:30;;;;;;;;;11.00;11.00;;;;;25.86;51.99;101174.97;5104872;27;45285;-71
2023/09/06 03:17:58;;;;;;;;;11.67;11.67;;;;;25.91;51.89;101183.25;5097487;27;45185;-70
2023/09/06 03:20:34;;;;;;;;;13.00;11.00;;;;;25.91;51.72;101185.97;5097610;27;45477;-73
2023/09/06 03:23:19;;;;;;;;;10.00;10.00;;;;;25.57;51.84;101128.44;5097396;27;46520;-70
2023/09/06 03:25:48;;;;;;;;;9.67;9.67;;;;;25.90;51.85;101178.88;5100635;27;45500;-69
2023/09/06 03:28:14;;;;;;;;;18.33;13.00;;;;;25.89;51.96;101180.75;5097668;27;45529;-71
2023/09/06 03:30:40;;;;;;;;;13.67;12.33;;;;;25.87;52.03;101182.91;5103553;27;45399;-70
2023/09/06 03:33:06;;;;;;;;;13.67;11.67;;;;;25.78;52.25;101157.88;5108343;27;45712;-72
2023/09/06 03:35:31;;;;;;;;;9.00;9.00;;;;;25.83;52.12;101168.09;5097185;27;45365;-70
2023/09/06 03:37:59;;;;;;;;;12.00;11.67;;;;;25.70;52.43;101166.41;5097529;27;45319;-71
2023/09/06 03:40:35;;;;;;;;;11.00;10.67;;;;;25.67;52.42;101155.97;5079142;27;45477;-70
2023/09/06 03:43:15;;;;;;;;;11.67;11.00;;;;;25.73;52.54;101178.72;5097075;27;47813;-71
2023/09/06 03:45:45;;;;;;;;;12.00;10.67;;;;;25.72;52.61;101175.16;5097033;27;45544;-71
2023/09/06 03:48:12;;;;;;;;;9.33;9.33;;;;;25.71;52.72;101184.41;5097094;27;45470;-71
2023/09/06 03:50:38;;;;;;;;;11.33;11.00;;;;;25.70;52.76;101177.28;5080631;27;45699;-71
2023/09/06 03:53:04;;;;;;;;;14.00;12.00;;;;;25.72;52.88;101190.69;5103294;27;45561;-70
2023/09/06 03:55:32;;;;;;;;;13.67;13.67;;;;;25.66;53.06;101177.97;5096831;27;45309;-71
2023/09/06 03:57:58;;;;;;;;;12.00;10.00;;;;;25.70;52.88;101182.75;5097474;27;45367;-71
2023/09/06 04:00:30;;;;;;;;;11.00;10.00;;;;;25.70;52.87;101185.47;5097165;27;45343;-70
2023/09/06 04:02:56;;;;;;;;;15.00;13.00;;;;;25.63;52.51;101175.69;5096763;27;46405;-71
2023/09/06 04:05:25;;;;;;;;;12.33;12.33;;;;;25.67;52.62;101188.66;5096600;27;45416;-70
2023/09/06 04:07:54;;;;;;;;;12.67;11.67;;;;;25.38;52.44;101144.03;5099414;27;45474;-71
2023/09/06 04:10:21;;;;;;;;;12.67;11.67;;;;;25.59;52.73;101186.22;5110600;27;45295;-70
2023/09/06 04:12:49;;;;;;;;;8.00;7.67;;;;;25.54;53.08;101182.53;5096693;27;46357;-69
2023/09/06 04:15:14;;;;;;;;;9.33;9.33;;;;;25.61;53.10;101199.59;5097180;27;45375;-70
2023/09/06 04:17:40;;;;;;;;;11.00;11.00;;;;;25.56;53.33;101196.75;5095757;27;61969;-71
2023/09/06 04:20:20;;;;;;;;;11.67;9.33;;;;;25.50;53.22;101190.34;5095258;27;45529;-70
2023/09/06 04:22:47;;;;;;;;;13.33;11.33;;;;;25.36;52.82;101170.66;5080512;27;48085;-70
2023/09/06 04:25:16;;;;;;;;;9.33;9.00;;;;;25.20;53.30;101143.25;5096832;27;45565;-70
2023/09/06 04:27:43;;;;;;;;;11.67;11.67;;;;;25.29;53.09;101159.03;5077237;27;45556;-71
2023/09/06 04:30:09;;;;;;;;;10.33;10.33;;;;;25.47;53.15;101188.91;5096582;27;45327;-71
2023/09/06 04:32:34;;;;;;;;;9.67;9.67;;;;;25.48;53.50;101192.47;5095870;27;46101;-70
2023/09/06 04:35:00;;;;;;;;;8.00;6.67;;;;;25.14;53.12;101139.56;5095554;27;58251;-70
2023/09/06 04:37:25;;;;;;;;;10.00;9.67;;;;;25.35;53.58;101185.31;5096449;27;45320;-72
2023/09/06 04:39:53;;;;;;;;;9.33;9.33;;;;;25.42;53.37;101196.94;5099125;27;45371;-70
2023/09/06 04:42:18;;;;;;;;;9.00;9.00;;;;;25.34;53.52;101186.38;5072821;27;47675;-73
2023/09/06 04:44:44;;;;;;;;;10.67;10.67;;;;;25.38;53.35;101197.63;5099680;27;45445;-71
2023/09/06 04:47:14;;;;;;;;;13.67;9.33;;;;;25.38;53.76;101194.91;5099506;27;45477;-70
2023/09/06 04:49:40;;;;;;;;;10.33;9.33;;;;;25.33;53.85;101192.88;5099612;27;45627;-71
2023/09/06 04:52:05;;;;;;;;;11.00;9.00;;;;;25.33;53.58;101192.06;5099037;27;45566;-71
2023/09/06 04:54:32;;;;;;;;;12.33;10.00;;;;;25.03;54.11;101148.50;5099239;27;45206;-70
2023/09/06 04:56:58;;;;;;;;;9.67;9.67;;;;;24.88;53.50;101127.13;5099605;27;45244;-71
2023/09/06 04:59:24;;;;;;;;;10.50;9.00;;;;;25.28;53.60;101198.19;5086740;27;45376;-71
2023/09/06 05:01:49;;;;;;;;;10.00;10.00;;;;;25.24;53.86;101196.16;5077447;27;45571;-73
2023/09/06 05:04:15;;;;;;;;;11.33;10.67;;;;;24.94;53.73;101153.41;5099200;27;45423;-69
2023/09/06 05:06:40;;;;;;;;;8.33;8.33;;;;;25.24;53.76;101205.16;5099409;27;45537;-70
2023/09/06 05:09:07;;;;;;;;;10.33;10.33;;;;;25.21;54.11;101204.75;5073005;27;45994;-70
2023/09/06 05:11:32;;;;;;;;;8.67;8.67;;;;;25.18;53.96;101195.19;5098906;27;45925;-71
2023/09/06 05:13:57;;;;;;;;;7.00;7.00;;;;;25.20;54.17;101194.94;5099054;27;45422;-72
2023/09/06 05:16:23;;;;;;;;;11.00;8.00;;;;;25.16;53.55;101191.84;5082684;27;45412;-69
2023/09/06 05:18:48;;;;;;;;;8.00;8.00;;;;;25.12;53.78;101185.22;5098959;27;45331;-70
2023/09/06 05:21:13;;;;;;;;;7.67;7.67;;;;;25.20;53.89;101201.22;5097254;27;45570;-71
2023/09/06 05:23:39;;;;;;;;;9.67;9.67;;;;;25.17;54.00;101194.34;5092253;27;58307;-70
2023/09/06 05:26:04;;;;;;;;;9.67;9.00;;;;;25.18;53.89;101190.56;5099432;27;45571;-70
2023/09/06 05:28:31;;;;;;;;;9.00;8.33;;;;;25.21;54.04;101188.44;5091486;27;45410;-70
2023/09/06 05:30:57;;;;;;;;;10.00;8.67;;;;;25.25;54.12;101195.94;5099199;27;45633;-72
2023/09/06 05:33:22;;;;;;;;;10.00;10.00;;;;;24.88;53.88;101138.00;5105834;27;45527;-71
2023/09/06 05:35:48;;;;;;;;;9.67;9.67;;;;;25.17;53.96;101180.75;5104949;27;45287;-72
2023/09/06 05:38:13;;;;;;;;;12.00;11.67;;;;;25.16;53.86;101181.81;5098970;27;45423;-69
2023/09/06 05:40:43;;;;;;;;;9.67;9.67;;;;;25.26;53.57;101202.22;5099070;27;45659;-69
2023/09/06 05:43:09;;;;;;;;;11.00;10.00;;;;;25.05;53.98;101166.28;5098819;27;45382;-72
2023/09/06 05:45:34;;;;;;;;;11.00;10.33;;;;;25.28;53.58;101206.34;5100850;27;45514;-71
2023/09/06 05:48:00;;;;;;;;;12.67;11.67;;;;;25.33;54.01;101213.81;5104672;27;45617;-72
2023/09/06 05:50:27;;;;;;;;;11.00;11.00;;;;;25.34;53.90;101218.22;5097331;27;46582;-72
2023/09/06 05:52:53;;;;;;;;;9.33;9.33;;;;;25.32;53.82;101206.72;5098770;27;45526;-71
2023/09/06 05:55:18;;;;;;;;;9.00;9.00;;;;;25.34;53.67;101199.16;5102719;27;45493;-71
2023/09/06 05:57:44;;;;;;;;;13.33;9.67;;;;;25.35;53.45;101212.53;5103604;27;45484;-72
2023/09/06 06:00:15;;;;;;;;;9.00;9.00;;;;;25.27;53.32;101207.41;5110856;27;45808;-69
2023/09/06 06:02:50;;;;;;;;;10.25;9.00;;;;;25.39;53.15;101211.00;5102424;27;45511;-70
2023/09/06 06:05:18;;;;;;;;;8.67;8.33;;;;;25.45;53.37;101217.44;5098282;27;45319;-69
2023/09/06 06:07:43;;;;;;;;;8.67;8.67;;;;;25.53;52.68;101214.38;5096433;27;45459;-68
2023/09/06 06:10:09;;;;;;;;;11.67;8.33;;;;;25.65;52.72;101225.31;5096762;27;46352;-71
2023/09/06 06:12:38;;;;;;;;;11.00;11.00;;;;;25.54;52.07;101205.16;5103454;27;45470;-70
2023/09/06 06:15:05;;;;;;;;;10.00;9.00;;;;;25.70;52.08;101225.50;5106744;27;45973;-67
2023/09/06 06:17:31;;;;;;;;;8.67;7.67;;;;;25.36;51.84;101157.03;5104252;27;45629;-69
2023/09/06 06:19:56;;;;;;;;;10.00;10.00;;;;;25.79;51.79;101229.53;5098964;27;48246;-71
2023/09/06 06:22:21;;;;;;;;;9.00;9.00;;;;;25.51;52.15;101170.22;5097880;27;45261;-70
2023/09/06 06:24:47;;;;;;;;;9.33;9.33;;;;;25.74;51.27;101185.81;5098320;27;45490;-68
2023/09/06 06:27:13;;;;;;;;;8.67;8.67;;;;;26.12;50.68;101236.34;5098351;27;45464;-68
2023/09/06 06:29:38;;;;;;;;;10.67;8.33;;;;;26.30;50.83;101233.53;5097780;27;45548;-69
2023/09/06 06:32:04;;;;;;;;;8.33;8.33;;;;;26.50;49.89;101238.66;5097444;27;45285;-70
2023/09/06 06:34:30;;;;;;;;;12.00;12.00;;;;;26.34;50.06;101182.91;5097574;27;45542;-68
2023/09/06 06:36:55;;;;;;;;;11.33;10.00;;;;;26.82;49.52;101230.91;5098115;27;45394;-68
2023/09/06 06:39:21;;;;;;;;;8.00;7.00;;;;;26.99;48.91;101245.47;5103635;27;45853;-70
2023/09/06 06:41:46;;;;;;;;;8.67;8.67;;;;;27.12;48.90;101242.53;5084419;27;45420;-70
2023/09/06 06:44:11;;;;;;;;;8.33;8.33;;;;;27.25;47.84;101230.50;5099720;27;45566;-69
2023/09/06 06:46:38;;;;;;;;;10.33;10.33;;;;;27.38;47.82;101235.66;5098122;27;45596;-69
2023/09/06 06:49:07;;;;;;;;;6.33;6.33;;;;;27.65;47.52;101246.06;5109065;27;46774;-70
2023/09/06 06:51:38;;;;;;;;;7.00;6.33;;;;;27.56;46.90;101197.25;5098566;27;45735;-69
2023/09/06 06:54:07;;;;;;;;;8.50;8.25;;;;;28.05;46.65;101244.03;5097903;27;45347;-70
2023/09/06 06:56:34;;;;;;;;;7.67;7.67;;;;;28.17;45.91;101236.56;5097595;27;45268;-68
2023/09/06 06:58:59;;;;;;;;;8.00;8.00;;;;;28.42;45.51;101247.09;5097253;27;45677;-70
2023/09/06 07:01:27;;;;;;;;;12.00;8.67;;;;;28.58;45.33;101245.44;5085788;27;46097;-70
2023/09/06 07:03:52;;;;;;;;;7.00;7.00;;;;;28.39;44.20;101184.72;5100820;27;45350;-69
2023/09/06 07:06:18;;;;;;;;;6.00;6.00;;;;;28.72;43.76;101230.31;5104124;27;45407;-69
2023/09/06 07:08:43;;;;;;;;;10.00;8.67;;;;;28.90;43.59;101247.56;5087722;27;48573;-72
2023/09/06 07:11:08;;;;;;;;;8.00;8.00;;;;;29.11;44.05;101252.22;5097222;27;45399;-69
2023/09/06 07:13:34;;;;;;;;;6.00;6.00;;;;;29.34;43.52;101251.13;5097381;27;45280;-71
2023/09/06 07:16:00;;;;;;;;;8.33;8.33;;;;;29.59;42.82;101256.06;5102332;27;45489;-69
2023/09/06 07:18:25;;;;;;;;;8.00;8.00;;;;;29.76;42.21;101245.84;5098819;27;46300;-69
2023/09/06 07:20:51;;;;;;;;;11.67;8.00;;;;;30.00;42.20;101260.03;5097545;27;45561;-68
2023/09/06 07:23:16;;;;;;;;;9.67;9.33;;;;;30.10;41.56;101246.47;5097005;27;45410;-68
2023/09/06 07:25:46;;;;;;;;;8.67;8.67;;;;;30.39;41.42;101257.09;5103535;27;45449;-69
2023/09/06 07:28:15;;;;;;;;;7.67;7.67;;;;;30.66;41.08;101265.28;5099679;27;46856;-70
2023/09/06 07:30:42;;;;;;;;;7.67;7.67;;;;;30.92;40.21;101261.59;5095359;27;45530;-70
2023/09/06 07:33:08;;;;;;;;;9.00;9.00;;;;;31.17;40.43;101263.66;5097145;27;45243;-67
2023/09/06 07:35:33;;;;;;;;;7.00;7.00;;;;;31.20;39.69;101235.63;5096940;27;45403;-70
2023/09/06 07:37:59;;;;;;;;;8.33;8.00;;;;;31.65;39.20;101259.69;5092536;27;45853;-73
2023/09/06 07:40:24;;;;;;;;;11.00;9.00;;;;;31.89;38.85;101259.19;5076813;27;45635;-70
2023/09/06 07:42:50;;;;;;;;;8.00;8.00;;;;;32.11;38.33;101265.25;5097060;27;45210;-69
2023/09/06 07:45:15;;;;;;;;;8.00;8.00;;;;;32.32;37.78;101250.41;5096971;27;45642;-69
2023/09/06 07:47:40;;;;;;;;;6.67;6.67;;;;;32.36;37.10;101223.97;5096771;27;46387;-68
2023/09/06 07:50:09;;;;;;;;;9.67;9.67;;;;;32.73;37.13;101244.81;5096943;27;45323;-69
2023/09/06 07:52:34;;;;;;;;;8.33;8.33;;;;;33.00;35.88;101252.75;5097005;27;46175;-69
2023/09/06 07:55:00;;;;;;;;;7.00;7.00;;;;;33.19;35.71;101272.22;5096799;27;45463;-69
2023/09/06 07:57:25;;;;;;;;;11.00;9.00;;;;;33.24;35.34;101261.22;5096557;27;46747;-68
2023/09/06 07:59:50;;;;;;;;;10.00;9.00;;;;;33.47;35.38;101279.84;5096618;27;45299;-70
2023/09/06 08:02:16;;;;;;;;;10.00;7.00;;;;;33.67;35.38;101267.06;5096780;27;45511;-69
2023/09/06 08:04:41;;;;;;;;;13.00;13.00;;;;;33.89;34.11;101281.28;5096588;27;45339;-68
2023/09/06 08:07:06;;;;;;;;;10.00;10.00;;;;;34.11;34.12;101278.88;5102454;27;46395;-69
2023/09/06 08:09:32;;;;;;;;;5.00;5.00;;;;;34.26;33.88;101275.19;5107895;27;45294;-68
2023/09/06 08:11:57;;;;;;;;;10.00;10.00;;;;;34.46;33.65;101285.25;5096722;27;45988;-68
2023/09/06 08:14:23;;;;;;;;;10.00;9.00;;;;;34.59;33.45;101279.03;5098968;27;45490;-69
2023/09/06 08:16:48;;;;;;;;;9.67;6.33;;;;;34.76;32.76;101268.34;5102272;27;47216;-68
2023/09/06 08:19:13;;;;;;;;;8.67;8.67;;;;;34.93;32.37;101272.63;5114319;27;45324;-69
2023/09/06 08:21:42;;;;;;;;;8.00;7.00;;;;;34.85;31.89;101270.50;5103137;27;46794;-70
2023/09/06 08:24:07;;;;;;;;;9.33;7.00;;;;;34.72;32.08;101250.72;5082549;27;45425;-69
2023/09/06 08:26:33;;;;;;;;;8.00;6.00;;;;;34.68;32.17;101227.56;5082315;27;46930;-68
2023/09/06 08:28:58;;;;;;;;;7.33;5.33;;;;;35.12;31.57;101281.78;5095417;27;45278;-69
2023/09/06 08:31:23;;;;;;;;;12.00;11.00;;;;;34.95;31.45;101243.56;5084557;27;45304;-70
2023/09/06 08:33:49;;;;;;;;;7.33;7.33;;;;;35.11;31.92;101279.31;5087329;27;45492;-68
2023/09/06 08:36:14;;;;;;;;;8.33;8.33;;;;;35.00;31.95;101278.59;5078692;27;46343;-68
2023/09/06 08:38:39;;;;;;;;;7.33;6.67;;;;;34.80;32.23;101289.84;5095752;27;45316;-68
2023/09/06 08:41:07;;;;;;;;;2.00;0.00;;;;;34.53;32.55;101258.09;5068011;27;45423;-68
2023/09/06 08:43:41;;;;;;;;;12.00;12.00;;;;;34.71;32.28;101275.88;5086451;27;45320;-69
2023/09/06 08:46:28;;;;;;;;;6.33;6.33;;;;;34.76;32.04;101284.09;5069680;27;47795;-69
2023/09/06 08:48:55;;;;;;;;;8.00;8.00;;;;;34.44;32.14;101248.78;5060717;27;45291;-69
2023/09/06 08:51:21;;;;;;;;;10.33;10.33;;;;;34.66;32.12;101290.56;5078894;27;45478;-69
2023/09/06 08:53:48;;;;;;;;;9.00;8.00;;;;;34.44;32.70;101252.41;5077654;27;45497;-68
2023/09/06 08:56:17;;;;;;;;;8.33;7.67;;;;;34.51;32.36;101284.38;5094371;27;47431;-68
2023/09/06 08:58:43;;;;;;;;;9.33;9.33;;;;;34.25;32.27;101256.16;5098785;27;45230;-68
2023/09/06 09:01:08;;;;;;;;;8.67;8.67;;;;;34.43;32.63;101286.63;5078858;27;45518;-68
2023/09/06 09:03:34;;;;;;;;;6.00;6.00;;;;;34.49;32.54;101292.94;5078771;27;45462;-68
2023/09/06 09:06:00;;;;;;;;;7.00;7.00;;;;;34.42;32.68;101284.16;5078753;27;46730;-67
2023/09/06 09:08:29;;;;;;;;;12.67;11.00;;;;;34.49;32.60;101284.66;5078529;27;45477;-69
2023/09/06 09:11:13;;;;;;;;;8.67;8.67;;;;;34.87;31.79;101284.84;5078631;27;45331;-70
2023/09/06 09:13:40;;;;;;;;;9.00;9.00;;;;;34.97;31.56;101268.13;5077860;27;45457;-69
2023/09/06 09:16:11;;;;;;;;;9.00;8.00;;;;;35.07;31.05;101259.75;5076729;27;46221;-69
2023/09/06 09:18:38;;;;;;;;;11.33;11.33;;;;;35.23;31.05;101255.63;5075942;27;45492;-70
2023/09/06 09:21:04;;;;;;;;;11.67;10.00;;;;;35.49;30.71;101236.78;5088680;27;45401;-70
2023/09/06 09:23:32;;;;;;;;;11.67;11.67;;;;;36.20;30.39;101268.88;5098665;27;45312;-69
2023/09/06 09:25:57;;;;;;;;;9.00;8.00;;;;;36.77;29.54;101271.47;5086826;27;46620;-69
2023/09/06 09:28:23;;;;;;;;;10.00;10.00;;;;;37.23;29.07;101273.31;5100402;27;45477;-69
2023/09/06 09:30:50;;;;;;;;;11.33;10.00;;;;;37.41;28.54;101275.97;5106896;27;45435;-69
2023/09/06 09:33:16;;;;;;;;;9.33;8.00;;;;;37.53;28.56;101267.13;5107398;27;45389;-68
2023/09/06 09:35:43;;;;;;;;;8.00;8.00;;;;;37.74;28.17;101265.53;5099614;27;45911;-69
2023/09/06 09:38:12;;;;;;;;;11.33;11.33;;;;;37.65;28.22;101267.41;5107902;27;45560;-68
2023/09/06 09:40:37;;;;;;;;;10.67;10.00;;;;;37.30;27.97;101284.84;5098871;27;45376;-70
2023/09/06 09:43:04;;;;;;;;;8.33;8.33;;;;;36.96;29.82;101274.97;5096701;27;46283;-69
2023/09/06 09:45:39;;;;;;;;;8.00;8.00;;;;;36.65;29.23;101279.47;5097971;27;45750;-67
2023/09/06 09:48:07;;;;;;;;;12.00;12.00;;;;;36.41;29.56;101276.84;5095332;27;45766;-68
2023/09/06 09:50:34;;;;;;;;;10.33;8.33;;;;;36.07;29.71;101264.13;5097211;27;45469;-68
2023/09/06 09:53:03;;;;;;;;;11.33;10.33;;;;;35.93;29.87;101277.91;5099782;27;45446;-69
2023/09/06 09:55:34;;;;;;;;;7.33;7.33;;;;;35.72;30.59;101265.50;5097974;27;45373;-69
2023/09/06 09:58:05;;;;;;;;;9.67;9.67;;;;;35.51;30.71;101269.69;5102348;27;45526;-67
2023/09/06 10:00:31;;;;;;;;;11.00;9.00;;;;;35.22;31.26;101265.03;5100188;27;45648;-68
2023/09/06 10:02:58;;;;;;;;;11.67;10.33;;;;;35.10;31.08;101270.19;5102185;27;45387;-67
2023/09/06 10:05:29;;;;;;;;;6.67;6.67;;;;;34.40;31.52;101190.59;5096678;27;45721;-68
2023/09/06 10:07:56;;;;;;;;;9.33;9.00;;;;;34.34;31.83;101226.78;5098219;27;45375;-68
2023/09/06 10:10:24;;;;;;;;;9.67;9.33;;;;;34.18;32.11;101228.88;5089841;27;45545;-68
2023/09/06 10:12:50;;;;;;;;;10.33;9.67;;;;;34.21;32.81;101258.66;5102170;27;45341;-68
2023/09/06 10:15:19;;;;;;;;;9.00;8.67;;;;;34.00;33.39;101266.28;5095632;27;45896;-68
2023/09/06 10:17:49;;;;;;;;;10.67;9.00;;;;;33.75;33.28;101263.69;5094856;27;45552;-68
2023/09/06 10:20:14;;;;;;;;;11.67;9.67;;;;;33.38;33.83;101226.41;5089225;27;45741;-72
2023/09/06 10:22:46;;;;;;;;;9.33;8.00;;;;;33.39;34.09;101263.91;5082070;27;45670;-68
2023/09/06 10:25:14;;;;;;;;;8.50;8.50;;;;;33.30;34.14;101256.50;5077750;27;46708;-67
2023/09/06 10:27:51;;;;;;;;;8.00;8.00;;;;;33.02;33.97;101222.16;5102453;27;45507;-68
2023/09/06 10:30:24;;;;;;;;;10.67;10.33;;;;;33.03;34.28;101254.94;5098091;27;45406;-70
2023/09/06 10:32:54;;;;;;;;;8.00;6.33;;;;;32.53;34.51;101206.34;5106814;27;45370;-74
2023/09/06 10:35:41;;;;;;;;;14.00;13.00;;;;;32.64;35.21;101254.78;5098730;27;46455;-69
2023/09/06 10:38:18;;;;;;;;;10.67;9.67;;;;;32.57;35.65;101255.03;5095633;27;45490;-69
2023/09/06 10:40:49;;;;;;;;;13.00;11.00;;;;;32.55;35.64;101250.94;5097459;27;45455;-69
2023/09/06 10:43:59;;;;;;;;;11.67;11.67;;;;;32.43;35.82;101237.44;5097684;27;45657;-69
2023/09/06 10:46:26;;;;;;;;;8.67;7.67;;;;;32.32;35.95;101247.66;5081905;27;46468;-74
2023/09/06 10:49:15;;;;;;;;;10.33;7.33;;;;;32.30;35.95;101243.53;5091187;27;45500;-68
2023/09/06 10:52:03;;;;;;;;;10.00;8.33;;;;;32.23;36.16;101241.03;5108044;27;45481;-69
2023/09/06 10:54:39;;;;;;;;;10.33;9.33;;;;;32.00;36.29;101230.59;5086277;27;45370;-68
2023/09/06 10:57:10;;;;;;;;;7.33;7.33;;;;;31.86;36.28;101221.25;5096740;27;46778;-69
2023/09/06 10:59:37;;;;;;;;;10.00;9.00;;;;;31.83;36.73;101232.78;5101310;27;45517;-68
2023/09/06 11:02:14;;;;;;;;;14.00;13.33;;;;;31.06;36.94;101119.94;5096483;27;45445;-69
2023/09/06 11:04:40;;;;;;;;;9.00;8.00;;;;;31.72;36.78;101243.78;5098773;27;45443;-68
2023/09/06 11:07:09;;;;;;;;;11.00;9.67;;;;;31.71;37.15;101227.53;5106767;27;46623;-69
2023/09/06 11:09:38;;;;;;;;;11.33;11.00;;;;;31.63;37.07;101223.38;5096103;27;45270;-67
2023/09/06 11:12:04;;;;;;;;;13.00;10.00;;;;;31.51;37.00;101217.31;5109877;27;45409;-68
2023/09/06 11:14:29;;;;;;;;;11.33;9.33;;;;;31.55;37.93;101225.84;5096692;27;45520;-68
2023/09/06 11:16:55;;;;;;;;;9.33;9.33;;;;;31.49;37.30;101230.50;5097894;27;45509;-68
2023/09/06 11:19:28;;;;;;;;;10.33;9.00;;;;;31.44;37.47;101219.50;5096506;27;45281;-68